createdAt,value
2023-02-02T00:00:26.162Z,10.77
2023-02-02T00:02:56.078Z,13.73
2023-02-02T00:05:25.062Z,13.95
2023-02-02T00:07:53.932Z,15.13
2023-02-02T00:10:22.573Z,16.42
2023-02-02T00:12:51.234Z,12.77
2023-02-02T00:15:19.769Z,10.43
2023-02-02T00:17:48.297Z,10.07
2023-02-02T00:20:18.482Z,13.15
2023-02-02T00:22:47.055Z,13.18
2023-02-02T00:25:15.754Z,17.55
2023-02-02T00:27:44.328Z,12.85
2023-02-02T00:30:14.257Z,14.02
2023-02-02T00:32:43.636Z,18.92
2023-02-02T00:35:12.165Z,13.25
2023-02-02T00:37:42.432Z,18.75
2023-02-02T00:40:12.605Z,18.67
2023-02-02T00:42:41.334Z,11.90
2023-02-02T00:45:19.002Z,17.90
2023-02-02T00:47:51.032Z,11.25
2023-02-02T00:50:21.610Z,15.10
2023-02-02T00:52:51.558Z,17.45
2023-02-02T00:55:20.740Z,17.65
2023-02-02T00:57:49.496Z,15.45
2023-02-02T01:00:20.889Z,10.05
2023-02-02T01:02:49.709Z,17.30
2023-02-02T01:05:18.721Z,17.20
2023-02-02T01:07:47.967Z,12.80
2023-02-02T01:10:20.010Z,14.55
2023-02-02T01:12:48.729Z,17.20
2023-02-02T01:15:17.633Z,9.90
2023-02-02T01:17:46.412Z,16.00
2023-02-02T01:20:18.464Z,16.15
2023-02-02T01:22:47.363Z,15.00
2023-02-02T01:25:16.195Z,16.55
2023-02-02T01:27:46.319Z,16.42
2023-02-02T01:30:15.404Z,11.93
2023-02-02T01:32:44.040Z,14.00
2023-02-02T01:35:12.665Z,16.73
2023-02-02T01:37:41.364Z,13.15
2023-02-02T01:40:11.781Z,11.48
2023-02-02T01:42:40.408Z,14.23
2023-02-02T01:45:20.565Z,16.77
2023-02-02T01:47:52.938Z,17.10
2023-02-02T01:50:24.912Z,14.77
2023-02-02T01:52:56.427Z,16.88
2023-02-02T01:55:27.535Z,13.10
2023-02-02T01:58:01.165Z,15.25
2023-02-02T02:00:33.501Z,15.68
2023-02-02T02:03:09.992Z,12.52
2023-02-02T02:05:43.040Z,15.80
2023-02-02T02:08:16.289Z,18.35
2023-02-02T02:10:44.933Z,14.73
2023-02-02T02:13:14.646Z,12.95
2023-02-02T02:16:07.796Z,16.70
2023-02-02T02:18:45.414Z,15.35
2023-02-02T02:22:06.224Z,11.98
2023-02-02T02:25:33.649Z,16.88
2023-02-02T02:28:35.608Z,13.95
2023-02-02T02:31:49.101Z,17.30
2023-02-02T02:34:25.381Z,16.52
2023-02-02T02:37:02.098Z,13.73
2023-02-02T02:39:36.654Z,14.45
2023-02-02T02:42:09.815Z,18.35
2023-02-02T02:44:38.721Z,15.02
2023-02-02T02:47:07.528Z,16.55
2023-02-02T02:49:44.575Z,12.02
2023-02-02T02:52:14.632Z,13.00
2023-02-02T02:54:49.767Z,10.85
2023-02-02T02:57:35.508Z,15.80
2023-02-02T03:00:14.309Z,14.20
2023-02-02T03:02:49.673Z,19.00
2023-02-02T03:05:30.075Z,17.20
2023-02-02T03:08:07.157Z,13.38
2023-02-02T03:10:37.091Z,22.70
2023-02-02T03:13:09.558Z,16.92
2023-02-02T03:15:41.417Z,11.13
2023-02-02T03:18:10.102Z,15.68
2023-02-02T03:20:40.038Z,16.40
2023-02-02T03:23:08.755Z,18.42
2023-02-02T03:25:39.929Z,15.50
2023-02-02T03:28:08.723Z,16.42
2023-02-02T03:30:39.320Z,22.35
2023-02-02T03:33:08.462Z,15.95
2023-02-02T03:35:36.986Z,15.85
2023-02-02T03:38:06.918Z,13.40
2023-02-02T03:40:35.578Z,12.25
2023-02-02T03:43:04.277Z,15.38
2023-02-02T03:45:35.414Z,15.85
2023-02-02T03:48:05.111Z,10.90
2023-02-02T03:50:34.010Z,13.82
2023-02-02T03:53:02.719Z,18.38
2023-02-02T03:55:32.826Z,9.93
2023-02-02T03:58:01.578Z,13.52
2023-02-02T04:00:30.170Z,11.65
2023-02-02T04:02:58.881Z,16.25
2023-02-02T04:05:27.925Z,14.25
2023-02-02T04:07:56.811Z,14.43
2023-02-02T04:10:25.377Z,13.68
2023-02-02T04:12:55.340Z,19.45
2023-02-02T04:15:24.213Z,13.90
2023-02-02T04:17:52.915Z,14.82
2023-02-02T04:20:21.592Z,14.88
2023-02-02T04:22:50.210Z,19.95
2023-02-02T04:25:18.751Z,11.93
2023-02-02T04:27:47.330Z,17.25
2023-02-02T04:30:17.741Z,12.73
2023-02-02T04:32:46.376Z,13.95
2023-02-02T04:35:15.195Z,14.23
2023-02-02T04:37:43.806Z,11.27
2023-02-02T04:40:13.942Z,16.42
2023-02-02T04:42:42.487Z,20.70
2023-02-02T04:45:11.970Z,18.83
2023-02-02T04:47:41.995Z,15.10
2023-02-02T04:50:12.156Z,14.70
2023-02-02T04:52:40.833Z,16.85
2023-02-02T04:55:10.128Z,18.90
2023-02-02T04:57:38.632Z,11.68
2023-02-02T05:00:08.385Z,15.30
2023-02-02T05:02:37.428Z,17.17
2023-02-02T05:05:10.640Z,12.77
2023-02-02T05:07:40.176Z,23.33
2023-02-02T05:10:11.063Z,15.90
2023-02-02T05:12:39.646Z,17.67
2023-02-02T05:15:09.387Z,17.42
2023-02-02T05:17:37.903Z,17.75
2023-02-02T05:20:09.105Z,14.07
2023-02-02T05:22:40.306Z,16.88
2023-02-02T05:25:09.741Z,15.07
2023-02-02T05:27:38.282Z,18.85
2023-02-02T05:30:08.069Z,16.00
2023-02-02T05:32:36.698Z,19.92
2023-02-02T05:35:07.648Z,17.63
2023-02-02T05:37:36.222Z,23.05
2023-02-02T05:40:05.706Z,13.90
2023-02-02T05:42:34.335Z,16.95
2023-02-02T05:45:03.075Z,16.63
2023-02-02T05:47:31.697Z,13.43
2023-02-02T05:50:02.413Z,14.63
2023-02-02T05:52:35.795Z,20.98
2023-02-02T05:55:04.887Z,14.85
2023-02-02T05:57:33.728Z,16.00
2023-02-02T06:00:02.363Z,18.85
2023-02-02T06:02:40.614Z,19.83
2023-02-02T06:05:09.878Z,17.00
2023-02-02T06:07:39.780Z,17.77
2023-02-02T06:10:09.049Z,15.70
2023-02-02T06:12:37.772Z,14.38
2023-02-02T06:15:07.488Z,17.98
2023-02-02T06:17:36.029Z,19.23
2023-02-02T06:20:05.348Z,15.10
2023-02-02T06:22:34.019Z,14.50
2023-02-02T06:25:05.527Z,15.50
2023-02-02T06:27:34.325Z,15.93
2023-02-02T06:30:02.869Z,14.77
2023-02-02T06:32:31.575Z,16.92
2023-02-02T06:35:00.166Z,13.75
2023-02-02T06:37:30.668Z,18.52
2023-02-02T06:39:59.398Z,17.65
2023-02-02T06:42:29.304Z,13.93
2023-02-02T06:44:57.872Z,17.70
2023-02-02T06:47:26.981Z,13.90
2023-02-02T06:49:55.628Z,15.45
2023-02-02T06:52:24.277Z,16.02
2023-02-02T06:54:52.807Z,13.68
2023-02-02T06:57:21.378Z,14.63
2023-02-02T06:59:52.244Z,13.15
2023-02-02T07:02:23.277Z,18.10
2023-02-02T07:04:52.931Z,17.17
2023-02-02T07:07:21.486Z,13.50
2023-02-02T07:09:58.247Z,11.63
2023-02-02T07:12:27.954Z,15.00
2023-02-02T07:14:59.373Z,13.00
2023-02-02T07:17:28.017Z,20.05
2023-02-02T07:19:56.520Z,14.98
2023-02-02T07:22:25.220Z,12.82
2023-02-02T07:24:53.744Z,10.13
2023-02-02T07:27:22.358Z,8.88
2023-02-02T07:29:54.216Z,13.18
2023-02-02T07:32:24.120Z,11.88
2023-02-02T07:34:52.773Z,12.98
2023-02-02T07:37:21.311Z,14.13
2023-02-02T07:39:49.986Z,14.10
2023-02-02T07:42:18.537Z,16.63
2023-02-02T07:44:48.549Z,11.88
2023-02-02T07:47:17.341Z,12.35
2023-02-02T07:49:47.305Z,15.63
2023-02-02T07:52:16.475Z,11.23
2023-02-02T07:54:45.073Z,10.85
2023-02-02T07:57:13.841Z,14.60
2023-02-02T07:59:42.519Z,9.55
2023-02-02T08:02:11.402Z,9.10
2023-02-02T08:04:40.359Z,13.20
2023-02-02T08:07:10.382Z,11.23
2023-02-02T08:09:39.059Z,11.40
2023-02-02T08:12:08.521Z,9.65
2023-02-02T08:14:39.076Z,17.52
2023-02-02T08:17:07.793Z,13.07
2023-02-02T08:19:36.404Z,17.33
2023-02-02T08:22:05.002Z,16.77
2023-02-02T08:24:40.373Z,9.93
2023-02-02T08:27:09.029Z,12.55
2023-02-02T08:29:38.233Z,14.93
2023-02-02T08:32:07.511Z,12.15
2023-02-02T08:34:38.591Z,13.25
2023-02-02T08:37:07.227Z,16.73
2023-02-02T08:39:37.333Z,9.38
2023-02-02T08:42:06.062Z,17.17
2023-02-02T08:45:01.347Z,8.23
2023-02-02T08:47:23.555Z,13.85
2023-02-02T08:49:52.413Z,18.25
2023-02-02T08:52:20.935Z,12.73
2023-02-02T08:54:50.908Z,12.23
2023-02-02T08:57:19.581Z,9.25
2023-02-02T08:59:48.234Z,11.07
2023-02-02T09:02:16.924Z,13.30
2023-02-02T09:04:47.030Z,10.18
2023-02-02T09:07:15.621Z,10.90
2023-02-02T09:09:44.159Z,16.55
2023-02-02T09:12:14.290Z,10.00
2023-02-02T09:14:43.022Z,11.27
2023-02-02T09:17:11.612Z,13.45
2023-02-02T09:19:40.223Z,10.07
2023-02-02T09:22:08.756Z,15.00
2023-02-02T09:24:37.468Z,16.15
2023-02-02T09:27:06.013Z,18.02
2023-02-02T09:29:36.067Z,10.43
2023-02-02T09:32:04.937Z,10.77
2023-02-02T09:34:33.545Z,9.68
2023-02-02T09:37:02.175Z,18.25
2023-02-02T09:39:30.733Z,10.25
2023-02-02T09:42:29.372Z,11.57
2023-02-02T09:45:09.937Z,15.00
2023-02-02T09:47:53.501Z,14.27
2023-02-02T09:50:32.073Z,9.85
2023-02-02T09:53:07.862Z,12.38
2023-02-02T09:55:39.191Z,8.32
2023-02-02T09:58:15.612Z,11.98
2023-02-02T10:00:52.480Z,15.35
2023-02-02T10:03:25.727Z,8.93
2023-02-02T10:06:02.392Z,9.43
2023-02-02T10:08:37.348Z,10.02
2023-02-02T10:11:18.024Z,9.60
2023-02-02T10:13:48.895Z,12.63
2023-02-02T10:16:21.797Z,9.30
2023-02-02T10:18:57.221Z,10.45
2023-02-02T10:21:33.405Z,9.98
2023-02-02T10:24:04.569Z,10.25
2023-02-02T10:26:39.204Z,5.60
2023-02-02T10:29:16.549Z,10.13
2023-02-02T10:31:56.543Z,11.65
2023-02-02T10:34:31.574Z,9.45
2023-02-02T10:37:23.982Z,9.43
2023-02-02T10:40:18.426Z,9.73
2023-02-02T10:43:19.472Z,8.10
2023-02-02T10:45:50.909Z,11.93
2023-02-02T10:48:23.566Z,10.00
2023-02-02T10:50:56.299Z,12.52
2023-02-02T10:53:29.633Z,14.60
2023-02-02T10:56:01.009Z,13.70
2023-02-02T10:58:33.299Z,8.88
2023-02-02T11:01:03.754Z,13.25
2023-02-02T11:03:34.465Z,8.50
2023-02-02T11:06:22.943Z,13.60
2023-02-02T11:08:56.801Z,8.40
2023-02-02T11:11:29.348Z,15.32
2023-02-02T11:14:02.344Z,9.02
2023-02-02T11:16:42.637Z,9.38
2023-02-02T11:19:30.644Z,9.77
2023-02-02T11:22:00.815Z,13.20
2023-02-02T11:24:36.453Z,11.13
2023-02-02T11:27:13.577Z,12.45
2023-02-02T11:29:44.626Z,5.53
2023-02-02T11:32:27.567Z,10.32
2023-02-02T11:35:21.458Z,9.02
2023-02-02T11:38:02.286Z,14.13
2023-02-02T11:40:37.391Z,6.97
2023-02-02T11:43:16.107Z,9.93
2023-02-02T11:45:49.370Z,9.98
2023-02-02T11:48:20.178Z,8.50
2023-02-02T11:50:53.619Z,10.68
2023-02-02T11:53:27.661Z,12.20
2023-02-02T11:55:57.671Z,13.02
2023-02-02T11:58:30.880Z,10.65
2023-02-02T12:01:02.149Z,12.43
2023-02-02T12:03:35.948Z,7.53
2023-02-02T12:06:20.361Z,13.05
2023-02-02T12:08:49.596Z,11.38
2023-02-02T12:11:34.843Z,11.55
2023-02-02T12:14:16.970Z,11.48
2023-02-02T12:16:56.344Z,14.30
2023-02-02T12:19:49.848Z,13.13
2023-02-02T12:22:41.294Z,12.05
2023-02-02T12:25:37.729Z,10.07
2023-02-02T12:28:17.939Z,10.63
2023-02-02T12:30:54.979Z,9.20
2023-02-02T12:33:31.713Z,9.98
2023-02-02T12:36:25.289Z,11.73
2023-02-02T12:39:10.795Z,12.57
2023-02-02T12:41:55.175Z,10.60
2023-02-02T12:44:32.200Z,12.13
2023-02-02T12:47:15.278Z,9.57
2023-02-02T12:50:02.872Z,10.77
2023-02-02T12:53:02.192Z,9.93
2023-02-02T12:55:40.715Z,9.55
2023-02-02T12:58:19.773Z,11.23
2023-02-02T13:01:01.153Z,11.73
2023-02-02T13:03:36.451Z,6.40
2023-02-02T13:06:39.078Z,10.15
2023-02-02T13:09:13.362Z,9.32
2023-02-02T13:11:49.987Z,10.73
2023-02-02T13:14:23.947Z,14.63
2023-02-02T13:16:56.473Z,11.68
2023-02-02T13:19:32.576Z,10.43
2023-02-02T13:22:05.784Z,8.55
2023-02-02T13:24:38.185Z,5.53
2023-02-02T13:27:11.753Z,10.40
2023-02-02T13:29:48.196Z,9.25
2023-02-02T13:32:26.008Z,11.57
2023-02-02T13:35:00.035Z,8.88
2023-02-02T13:37:37.065Z,7.78
2023-02-02T13:40:16.665Z,6.97
2023-02-02T13:42:53.139Z,9.63
2023-02-02T13:45:40.021Z,6.35
2023-02-02T13:48:19.039Z,8.68
2023-02-02T13:51:05.364Z,13.77
2023-02-02T13:53:51.784Z,7.53
2023-02-02T13:56:38.694Z,9.00
2023-02-02T13:59:26.547Z,10.13
2023-02-02T14:01:58.061Z,8.95
2023-02-02T14:04:30.904Z,8.90
2023-02-02T14:07:07.078Z,6.43
2023-02-02T14:09:38.112Z,7.00
2023-02-02T14:12:10.622Z,7.47
2023-02-02T14:14:46.944Z,6.13
2023-02-02T14:17:48.801Z,9.43
2023-02-02T14:20:43.139Z,8.45
2023-02-02T14:23:50.920Z,6.43
2023-02-02T14:26:40.305Z,6.72
2023-02-02T14:29:37.142Z,6.95
2023-02-02T14:32:30.504Z,5.05
2023-02-02T14:35:00.234Z,6.72
2023-02-02T14:37:46.510Z,7.85
2023-02-02T14:40:40.174Z,7.45
2023-02-02T14:43:36.758Z,4.95
2023-02-02T14:46:24.862Z,6.50
2023-02-02T14:49:15.911Z,9.65
2023-02-02T14:51:52.166Z,5.13
2023-02-02T14:54:25.877Z,4.13
2023-02-02T14:56:58.200Z,5.95
2023-02-02T14:59:32.805Z,6.82
2023-02-02T15:02:10.377Z,6.45
2023-02-02T15:04:40.466Z,4.15
2023-02-02T15:07:53.877Z,4.45
2023-02-02T15:11:01.904Z,6.28
2023-02-02T15:13:37.373Z,5.60
2023-02-02T15:16:15.609Z,7.22
2023-02-02T15:18:47.682Z,6.63
2023-02-02T15:21:23.786Z,10.30
2023-02-02T15:23:52.635Z,4.03
2023-02-02T15:26:25.002Z,5.10
2023-02-02T15:28:58.346Z,4.07
2023-02-02T15:31:33.891Z,4.55
2023-02-02T15:34:06.196Z,5.90
2023-02-02T15:36:40.239Z,5.50
2023-02-02T15:39:27.521Z,5.47
2023-02-02T15:42:11.189Z,7.22
2023-02-02T15:44:39.897Z,7.32
2023-02-02T15:47:13.861Z,7.82
2023-02-02T15:49:43.036Z,3.40
2023-02-02T15:52:27.062Z,8.02
2023-02-02T15:54:56.891Z,8.23
2023-02-02T15:57:30.489Z,6.70
2023-02-02T16:00:00.245Z,5.53
2023-02-02T16:02:37.860Z,7.63
2023-02-02T16:05:25.159Z,5.63
2023-02-02T16:08:04.958Z,6.95
2023-02-02T16:10:35.507Z,11.32
2023-02-02T16:13:04.839Z,3.97
2023-02-02T16:15:33.585Z,6.57
2023-02-02T16:18:03.466Z,4.22
2023-02-02T16:20:37.248Z,6.68
2023-02-02T16:23:14.551Z,7.68
2023-02-02T16:25:48.634Z,5.45
2023-02-02T16:28:20.316Z,4.70
2023-02-02T16:30:51.713Z,6.90
2023-02-02T16:33:38.477Z,8.32
2023-02-02T16:36:25.070Z,5.47
2023-02-02T16:38:57.783Z,5.07
2023-02-02T16:41:29.085Z,4.32
2023-02-02T16:43:57.694Z,6.20
2023-02-02T16:46:45.562Z,7.32
2023-02-02T16:49:19.829Z,5.63
2023-02-02T16:51:50.301Z,3.67
2023-02-02T16:54:22.025Z,5.50
2023-02-02T16:56:53.051Z,6.82
2023-02-02T16:59:25.968Z,7.40
2023-02-02T17:01:58.273Z,4.38
2023-02-02T17:04:29.168Z,4.35
2023-02-02T17:07:05.781Z,5.28
2023-02-02T17:09:37.917Z,5.53
2023-02-02T17:12:33.363Z,4.75
2023-02-02T17:15:06.030Z,5.72
2023-02-02T17:17:34.604Z,6.47
2023-02-02T17:20:05.014Z,4.20
2023-02-02T17:22:39.272Z,5.15
2023-02-02T17:25:16.999Z,4.47
2023-02-02T17:27:46.310Z,5.97
2023-02-02T17:30:17.596Z,6.03
2023-02-02T17:32:46.479Z,5.63
2023-02-02T17:35:16.483Z,3.92
2023-02-02T17:37:45.015Z,4.10
2023-02-02T17:40:16.591Z,6.25
2023-02-02T17:42:46.186Z,6.53
2023-02-02T17:45:18.480Z,5.57
2023-02-02T17:47:47.058Z,3.50
2023-02-02T17:50:16.005Z,4.97
2023-02-02T17:52:45.785Z,5.90
2023-02-02T17:55:24.530Z,7.78
2023-02-02T17:57:54.816Z,7.10
2023-02-02T18:00:26.099Z,7.28
2023-02-02T18:02:58.125Z,9.38
2023-02-02T18:05:26.962Z,6.60
2023-02-02T18:07:55.849Z,8.40
2023-02-02T18:10:27.166Z,6.35
2023-02-02T18:12:55.888Z,4.18
2023-02-02T18:15:24.842Z,7.68
2023-02-02T18:17:53.689Z,3.92
2023-02-02T18:20:22.288Z,4.78
2023-02-02T18:22:52.265Z,6.13
2023-02-02T18:25:20.917Z,6.18
2023-02-02T18:27:52.302Z,8.55
2023-02-02T18:30:21.086Z,7.90
2023-02-02T18:32:50.651Z,7.20
2023-02-02T18:35:19.329Z,6.97
2023-02-02T18:37:49.150Z,5.78
2023-02-02T18:40:18.134Z,8.77
2023-02-02T18:42:46.731Z,6.85
2023-02-02T18:45:16.906Z,9.15
2023-02-02T18:47:45.457Z,8.40
2023-02-02T18:50:14.062Z,7.85
2023-02-02T18:52:42.633Z,9.27
2023-02-02T18:55:11.368Z,10.18
2023-02-02T18:57:39.937Z,9.40
2023-02-02T19:00:10.047Z,13.13
2023-02-02T19:02:40.094Z,9.15
2023-02-02T19:05:27.404Z,8.48
2023-02-02T19:07:56.187Z,6.22
2023-02-02T19:10:26.512Z,8.45
2023-02-02T19:12:58.666Z,7.20
2023-02-02T19:15:27.509Z,9.80
2023-02-02T19:17:57.578Z,10.20
2023-02-02T19:20:28.812Z,9.45
2023-02-02T19:23:03.797Z,9.85
2023-02-02T19:25:33.592Z,9.65
2023-02-02T19:28:08.189Z,6.38
2023-02-02T19:30:36.816Z,9.68
2023-02-02T19:33:11.640Z,10.35
2023-02-02T19:35:40.384Z,13.23
2023-02-02T19:38:13.270Z,10.75
2023-02-02T19:40:44.728Z,12.82
2023-02-02T19:43:26.671Z,7.05
2023-02-02T19:45:56.064Z,9.10
2023-02-02T19:48:28.054Z,10.27
2023-02-02T19:50:56.963Z,8.45
2023-02-02T19:53:28.843Z,12.45
2023-02-02T19:55:57.386Z,10.98
2023-02-02T19:58:29.816Z,9.63
2023-02-02T20:00:59.349Z,12.65
2023-02-02T20:03:37.424Z,7.93
2023-02-02T20:06:06.300Z,9.15
2023-02-02T20:08:39.967Z,10.32
2023-02-02T20:11:32.864Z,10.07
2023-02-02T20:14:02.680Z,8.63
2023-02-02T20:16:38.968Z,9.13
2023-02-02T20:19:17.795Z,9.07
2023-02-02T20:21:48.955Z,9.32
2023-02-02T20:24:19.631Z,8.57
2023-02-02T20:26:49.029Z,8.82
2023-02-02T20:29:20.634Z,9.55
2023-02-02T20:31:50.792Z,12.45
2023-02-02T20:34:26.309Z,7.95
2023-02-02T20:36:59.527Z,7.85
2023-02-02T20:39:33.166Z,10.90
2023-02-02T20:42:02.196Z,9.80
2023-02-02T20:44:32.003Z,7.93
2023-02-02T20:47:01.202Z,11.50
2023-02-02T20:49:32.043Z,10.63
2023-02-02T20:52:03.610Z,7.55
2023-02-02T20:54:33.127Z,7.75
2023-02-02T20:57:02.167Z,12.43
2023-02-02T20:59:31.598Z,10.18
2023-02-02T21:02:00.681Z,8.88
2023-02-02T21:04:30.790Z,9.05
2023-02-02T21:07:00.386Z,9.68
2023-02-02T21:09:28.947Z,6.90
2023-02-02T21:11:57.545Z,6.60
2023-02-02T21:14:26.200Z,7.38
2023-02-02T21:17:05.428Z,9.73
2023-02-02T21:19:42.790Z,10.27
2023-02-02T21:22:11.713Z,8.18
2023-02-02T21:24:40.541Z,8.13
2023-02-02T21:27:10.070Z,7.32
2023-02-02T21:29:39.059Z,8.57
2023-02-02T21:32:07.893Z,6.85
2023-02-02T21:34:37.659Z,7.07
2023-02-02T21:37:14.800Z,6.30
2023-02-02T21:39:48.344Z,8.18
2023-02-02T21:42:19.335Z,10.50
2023-02-02T21:44:52.424Z,8.82
2023-02-02T21:47:28.680Z,9.25
2023-02-02T21:49:58.467Z,9.55
2023-02-02T21:52:33.583Z,8.15
2023-02-02T21:55:22.644Z,7.25
2023-02-02T21:57:51.195Z,6.63
2023-02-02T22:00:26.255Z,8.25
2023-02-02T22:02:55.171Z,7.63
2023-02-02T22:05:28.041Z,9.50
2023-02-02T22:08:02.159Z,6.93
2023-02-02T22:10:36.844Z,7.95
2023-02-02T22:13:16.803Z,6.15
2023-02-02T22:15:47.342Z,9.13
2023-02-02T22:18:19.813Z,7.85
2023-02-02T22:20:50.797Z,8.38
2023-02-02T22:23:22.370Z,7.30
2023-02-02T22:25:54.000Z,8.02
2023-02-02T22:28:26.387Z,8.93
2023-02-02T22:30:56.753Z,9.55
2023-02-02T22:33:26.819Z,10.02
2023-02-02T22:35:55.650Z,6.20
2023-02-02T22:38:26.483Z,6.15
2023-02-02T22:40:55.649Z,8.10
2023-02-02T22:43:24.209Z,10.20
2023-02-02T22:45:52.744Z,7.70
2023-02-02T22:48:21.318Z,10.73
2023-02-02T22:50:49.912Z,5.80
2023-02-02T22:53:18.436Z,10.38
2023-02-02T22:55:49.021Z,6.40
2023-02-02T22:58:17.590Z,7.15
2023-02-02T23:00:46.204Z,9.27
2023-02-02T23:03:14.796Z,6.25
2023-02-02T23:05:43.394Z,9.00
2023-02-02T23:08:12.086Z,8.73
2023-02-02T23:10:40.611Z,7.43
2023-02-02T23:13:10.625Z,11.38
2023-02-02T23:15:39.361Z,9.40
2023-02-02T23:18:08.009Z,8.07
2023-02-02T23:20:36.446Z,8.57
2023-02-02T23:23:05.071Z,10.18
2023-02-02T23:25:33.686Z,10.07
2023-02-02T23:28:03.945Z,10.90
2023-02-02T23:30:33.848Z,6.45
2023-02-02T23:33:02.409Z,8.38
2023-02-02T23:35:31.005Z,5.15
2023-02-02T23:37:59.445Z,9.75
2023-02-02T23:40:28.329Z,10.02
2023-02-02T23:42:57.145Z,8.27
2023-02-02T23:45:25.778Z,8.88
2023-02-02T23:47:55.680Z,8.55
2023-02-02T23:50:24.830Z,7.63
2023-02-02T23:52:56.455Z,7.32
2023-02-02T23:55:25.018Z,8.95
2023-02-02T23:57:53.794Z,8.43
